Time;durP1;ratioP1;P1;durP2;ratioP2;P2;SDS_P1;SDS_P2;PMS_P1;PMS_P2;Temp;Humidity;BMP_temperature;BMP_pressure;BME280_temperature;BME280_humidity;BME280_pressure;Samples;Min_cycle;Max_cycle;Signal;HPM_P1;HPM_P2
2022/10/07 00:01:07;;;;;;;11.48;3.03;;;10.70;99.90;;;;;;5051774;28;20060;-62
2022/10/07 00:03:33;;;;;;;9.00;2.95;;;10.70;99.90;;;;;;5035617;28;20044;-62
2022/10/07 00:06:08;;;;;;;11.77;2.67;;;10.70;99.90;;;;;;5051474;28;20497;-62
2022/10/07 00:08:35;;;;;;;11.73;3.05;;;10.70;99.90;;;;;;5053631;28;20041;-62
2022/10/07 00:11:22;;;;;;;10.25;3.50;;;10.60;99.90;;;;;;5053524;28;20045;-61
2022/10/07 00:13:53;;;;;;;12.27;3.08;;;10.60;99.90;;;;;;5051622;28;20094;-62
2022/10/07 00:16:23;;;;;;;10.20;2.80;;;10.60;99.90;;;;;;5052008;28;20150;-62
2022/10/07 00:18:50;;;;;;;11.35;3.50;;;10.60;99.90;;;;;;5052098;28;20044;-62
2022/10/07 00:21:18;;;;;;;10.85;3.20;;;10.60;99.90;;;;;;5051124;28;20123;-62
2022/10/07 00:23:46;;;;;;;9.55;2.88;;;10.60;99.90;;;;;;5053175;28;20142;-62
2022/10/07 00:26:15;;;;;;;12.45;3.40;;;10.60;99.90;;;;;;5035320;28;20044;-62
2022/10/07 00:28:41;;;;;;;9.85;3.75;;;10.60;99.90;;;;;;5051238;28;20482;-62
2022/10/07 00:31:09;;;;;;;11.48;2.90;;;10.60;99.90;;;;;;5051855;28;20037;-62
2022/10/07 00:33:37;;;;;;;12.25;2.75;;;10.60;99.90;;;;;;5051825;28;20041;-62
2022/10/07 00:36:15;;;;;;;12.82;3.40;;;10.60;99.90;;;;;;5050784;28;20398;-62
2022/10/07 00:38:42;;;;;;;10.60;3.53;;;10.60;99.90;;;;;;5033269;28;20042;-62
2022/10/07 00:41:14;;;;;;;17.25;3.55;;;10.50;99.90;;;;;;5014589;28;20041;-62
2022/10/07 00:43:39;;;;;;;11.13;3.53;;;10.50;99.90;;;;;;5032214;28;20071;-62
2022/10/07 00:46:13;;;;;;;10.35;3.20;;;10.50;99.90;;;;;;5044563;28;20517;-62
2022/10/07 00:48:39;;;;;;;10.98;3.42;;;10.50;99.90;;;;;;5034159;28;20052;-62
2022/10/07 00:51:06;;;;;;;10.27;2.83;;;10.50;99.90;;;;;;5052635;28;20052;-62
2022/10/07 00:53:35;;;;;;;12.15;3.47;;;10.50;99.90;;;;;;5052589;28;20470;-62
2022/10/07 00:56:03;;;;;;;15.70;3.95;;;10.50;99.90;;;;;;5050704;28;20045;-62
2022/10/07 00:58:33;;;;;;;14.63;3.00;;;10.50;99.90;;;;;;5052892;28;20076;-62
2022/10/07 01:00:59;;;;;;;15.00;3.17;;;10.40;99.90;;;;;;5051205;28;20076;-62
2022/10/07 01:03:25;;;;;;;10.90;3.40;;;10.40;99.90;;;;;;5050269;28;20095;-62
2022/10/07 01:05:50;;;;;;;11.68;3.50;;;10.40;99.90;;;;;;5052407;28;20045;-62
2022/10/07 01:08:18;;;;;;;11.13;3.38;;;10.40;99.90;;;;;;5084226;28;20044;-61
2022/10/07 01:11:00;;;;;;;9.98;3.60;;;10.40;99.90;;;;;;5050962;28;20049;-62
2022/10/07 01:13:33;;;;;;;18.98;4.30;;;10.40;99.90;;;;;;5052156;28;20037;-62
2022/10/07 01:16:09;;;;;;;12.02;3.33;;;10.40;99.90;;;;;;5034298;28;20086;-62
2022/10/07 01:18:39;;;;;;;7.32;2.70;;;10.40;99.90;;;;;;5050326;28;20124;-62
2022/10/07 01:21:24;;;;;;;9.23;3.10;;;10.40;99.90;;;;;;5031247;28;20153;-62
2022/10/07 01:24:22;;;;;;;9.60;2.85;;;10.30;99.90;;;;;;5013711;28;20116;-62
2022/10/07 01:27:02;;;;;;;10.07;2.78;;;10.30;99.90;;;;;;5031076;28;20071;-62
2022/10/07 01:29:34;;;;;;;15.05;3.50;;;10.30;99.90;;;;;;5030988;28;20077;-62
2022/10/07 01:32:05;;;;;;;14.88;3.03;;;10.30;99.90;;;;;;5030914;28;20034;-62
2022/10/07 01:34:33;;;;;;;12.52;3.40;;;10.30;99.90;;;;;;5042878;28;20041;-62
2022/10/07 01:37:01;;;;;;;10.07;3.38;;;10.30;99.90;;;;;;5050838;28;20103;-62
2022/10/07 01:39:32;;;;;;;10.73;3.10;;;10.30;99.90;;;;;;5050034;28;20051;-62
2022/10/07 01:41:58;;;;;;;10.55;3.28;;;10.30;99.90;;;;;;5051710;28;20033;-62
2022/10/07 01:44:28;;;;;;;10.95;2.70;;;10.30;99.90;;;;;;5066826;28;20056;-61
2022/10/07 01:46:54;;;;;;;13.68;3.72;;;10.30;99.90;;;;;;5050667;28;20037;-62
2022/10/07 01:49:20;;;;;;;15.40;3.20;;;10.20;99.90;;;;;;5067157;28;20049;-62
2022/10/07 01:52:03;;;;;;;12.02;3.50;;;10.20;99.90;;;;;;5051015;28;20397;-62
2022/10/07 01:55:01;;;;;;;16.17;4.68;;;10.20;99.90;;;;;;5050389;28;20041;-62
2022/10/07 01:58:06;;;;;;;14.43;4.13;;;10.20;99.90;;;;;;5084212;28;20044;-61
2022/10/07 02:00:37;;;;;;;11.43;3.47;;;10.20;99.90;;;;;;5058979;28;20060;-62
2022/10/07 02:03:03;;;;;;;8.25;3.17;;;10.20;99.90;;;;;;5051887;28;20045;-62
2022/10/07 02:05:45;;;;;;;12.63;3.38;;;10.10;99.90;;;;;;5049912;28;20120;-62
2022/10/07 02:08:23;;;;;;;14.88;4.40;;;10.10;99.90;;;;;;5050657;28;20497;-62
2022/10/07 02:11:03;;;;;;;14.75;3.85;;;10.10;99.90;;;;;;5066843;28;20033;-62
2022/10/07 02:13:33;;;;;;;13.23;3.90;;;10.10;99.90;;;;;;5050850;28;20120;-62
2022/10/07 02:16:05;;;;;;;16.80;4.57;;;10.10;99.90;;;;;;5050445;28;20040;-62
2022/10/07 02:18:34;;;;;;;13.98;4.38;;;10.10;99.90;;;;;;5051253;28;20623;-62
2022/10/07 02:21:04;;;;;;;23.15;4.75;;;10.10;99.90;;;;;;5050914;28;20143;-62
2022/10/07 02:23:33;;;;;;;12.52;3.90;;;10.10;99.90;;;;;;5051541;28;20040;-62
2022/10/07 02:26:01;;;;;;;14.48;4.18;;;10.10;99.90;;;;;;5050438;28;20048;-62
2022/10/07 02:28:29;;;;;;;14.73;4.28;;;10.10;99.90;;;;;;5049254;28;20041;-62
2022/10/07 02:30:56;;;;;;;12.88;4.00;;;10.10;99.90;;;;;;5033962;28;20076;-61
2022/10/07 02:33:26;;;;;;;12.73;4.45;;;10.10;99.90;;;;;;5051205;28;20048;-62
2022/10/07 02:35:54;;;;;;;10.40;3.88;;;10.10;99.90;;;;;;5049438;28;20040;-62
2022/10/07 02:38:21;;;;;;;10.52;3.60;;;10.10;99.90;;;;;;5051459;28;20044;-62
2022/10/07 02:41:30;;;;;;;18.10;3.97;;;10.10;99.90;;;;;;5049315;28;20076;-62
2022/10/07 02:44:34;;;;;;;10.80;4.57;;;10.10;99.90;;;;;;5051915;28;20102;-62
2022/10/07 02:47:03;;;;;;;12.50;4.03;;;10.00;99.90;;;;;;5071997;28;20084;-62
2022/10/07 02:49:31;;;;;;;14.55;4.18;;;10.00;99.90;;;;;;5053876;28;20067;-62
2022/10/07 02:52:10;;;;;;;10.25;4.18;;;10.00;99.90;;;;;;5053620;28;20036;-62
2022/10/07 02:54:44;;;;;;;12.82;4.75;;;10.00;99.90;;;;;;5054944;28;20481;-61
2022/10/07 02:57:13;;;;;;;11.82;3.88;;;9.90;99.90;;;;;;5054077;28;20036;-62
2022/10/07 02:59:40;;;;;;;11.38;4.38;;;9.90;99.90;;;;;;5054121;28;20111;-62
2022/10/07 03:02:14;;;;;;;13.10;4.75;;;9.90;99.90;;;;;;5052682;28;20110;-62
2022/10/07 03:04:41;;;;;;;12.15;4.20;;;9.90;99.90;;;;;;5053950;28;20048;-62
2022/10/07 03:07:06;;;;;;;13.95;4.47;;;9.90;99.90;;;;;;5086567;28;20562;-62
2022/10/07 03:09:33;;;;;;;12.02;4.18;;;9.90;99.90;;;;;;5052606;28;20037;-62
2022/10/07 03:11:58;;;;;;;11.63;4.43;;;9.90;99.90;;;;;;5054790;28;20044;-62
2022/10/07 03:14:24;;;;;;;12.43;4.20;;;9.90;99.90;;;;;;5053439;28;20406;-62
2022/10/07 03:16:53;;;;;;;13.38;4.10;;;9.80;99.90;;;;;;5052579;28;20080;-62
2022/10/07 03:19:18;;;;;;;15.80;5.93;;;9.80;99.90;;;;;;5054150;28;20368;-62
2022/10/07 03:21:44;;;;;;;16.10;4.43;;;9.80;99.90;;;;;;5053455;28;20045;-61
2022/10/07 03:24:10;;;;;;;11.73;4.82;;;9.80;99.90;;;;;;5053792;28;20425;-62
2022/10/07 03:26:36;;;;;;;13.13;4.45;;;9.80;99.90;;;;;;5052770;28;20048;-63
2022/10/07 03:29:03;;;;;;;21.40;4.85;;;9.80;99.90;;;;;;5051937;28;20041;-62
2022/10/07 03:31:29;;;;;;;13.80;5.25;;;9.80;99.90;;;;;;5053359;28;20044;-62
2022/10/07 03:33:56;;;;;;;24.35;5.95;;;9.80;99.90;;;;;;5069830;28;20398;-62
2022/10/07 03:36:23;;;;;;;18.15;5.70;;;9.80;99.90;;;;;;5040582;28;20041;-62
2022/10/07 03:38:50;;;;;;;18.73;5.55;;;9.80;99.90;;;;;;5015953;28;20037;-62
2022/10/07 03:41:18;;;;;;;14.43;5.22;;;9.80;99.90;;;;;;5048578;28;20047;-62
2022/10/07 03:43:44;;;;;;;13.98;5.63;;;9.80;99.90;;;;;;5086902;28;20045;-62
2022/10/07 03:46:10;;;;;;;14.05;5.20;;;9.80;99.90;;;;;;5052334;28;20460;-62
2022/10/07 03:48:36;;;;;;;18.95;5.15;;;9.80;99.90;;;;;;5086141;28;20558;-62
2022/10/07 03:51:01;;;;;;;16.35;4.53;;;9.80;99.90;;;;;;5068709;28;20559;-62
2022/10/07 03:53:28;;;;;;;16.40;4.60;;;9.80;99.90;;;;;;5069452;28;20064;-62
2022/10/07 03:55:54;;;;;;;15.07;4.90;;;9.80;99.90;;;;;;5051709;28;20044;-62
2022/10/07 03:58:20;;;;;;;20.35;7.03;;;9.80;99.90;;;;;;5052111;28;20044;-62
2022/10/07 04:00:46;;;;;;;12.98;5.20;;;9.80;99.90;;;;;;5052119;28;20136;-62
2022/10/07 04:03:13;;;;;;;13.75;4.75;;;9.90;99.90;;;;;;5087077;28;20123;-62
2022/10/07 04:05:39;;;;;;;16.85;5.28;;;9.90;99.90;;;;;;5053520;28;20397;-62
2022/10/07 04:08:05;;;;;;;14.25;5.38;;;9.90;99.90;;;;;;5053701;28;20041;-62
2022/10/07 04:10:31;;;;;;;19.85;5.57;;;9.90;99.90;;;;;;5053739;28;20037;-62
2022/10/07 04:12:57;;;;;;;18.92;5.55;;;9.90;99.90;;;;;;5051627;28;20123;-62
2022/10/07 04:15:23;;;;;;;19.45;5.50;;;10.00;99.90;;;;;;5085593;28;20072;-62
2022/10/07 04:17:57;;;;;;;12.13;5.07;;;10.00;99.90;;;;;;5085959;28;20397;-62
2022/10/07 04:20:23;;;;;;;18.97;6.10;;;10.00;99.90;;;;;;5052276;28;20044;-62
2022/10/07 04:22:49;;;;;;;16.85;5.07;;;10.00;99.90;;;;;;5053240;28;20278;-63
2022/10/07 04:25:32;;;;;;;16.83;5.47;;;10.00;99.90;;;;;;5053106;28;20041;-62
2022/10/07 04:28:00;;;;;;;16.35;5.85;;;10.00;99.90;;;;;;5052502;28;20045;-62
2022/10/07 04:30:27;;;;;;;20.60;6.00;;;10.00;99.90;;;;;;5047611;28;20078;-62
2022/10/07 04:32:53;;;;;;;20.60;5.88;;;10.00;99.90;;;;;;5049426;28;20470;-62
2022/10/07 04:35:22;;;;;;;18.70;5.78;;;10.00;99.90;;;;;;5049027;28;20025;-62
2022/10/07 04:37:49;;;;;;;17.15;5.50;;;10.00;99.90;;;;;;5050759;28;20045;-62
2022/10/07 04:40:15;;;;;;;15.80;5.72;;;10.00;99.90;;;;;;5046729;28;20041;-62
2022/10/07 04:45:25;;;;;;;14.18;5.07;;;10.00;99.90;;;;;;5049248;28;20052;-62
2022/10/07 04:47:50;;;;;;;26.02;5.55;;;10.00;99.90;;;;;;5049355;28;20112;-62
2022/10/07 04:50:17;;;;;;;14.45;5.13;;;10.00;99.90;;;;;;5083087;28;20103;-62
2022/10/07 04:52:42;;;;;;;15.32;5.50;;;10.00;99.90;;;;;;5050642;28;20114;-62
2022/10/07 04:55:13;;;;;;;19.90;5.70;;;10.00;99.90;;;;;;5081648;28;20036;-62
2022/10/07 04:57:39;;;;;;;19.75;5.70;;;10.00;99.90;;;;;;5046224;28;20498;-62
2022/10/07 05:00:06;;;;;;;21.48;5.43;;;10.00;99.90;;;;;;5017512;28;20033;-62
2022/10/07 05:02:31;;;;;;;19.33;6.78;;;10.00;99.90;;;;;;5081403;28;20056;-62
2022/10/07 05:04:58;;;;;;;18.80;5.93;;;10.00;99.90;;;;;;5049873;28;20051;-62
2022/10/07 05:07:24;;;;;;;13.25;5.80;;;10.00;99.90;;;;;;5082459;28;20045;-62
2022/10/07 05:09:50;;;;;;;15.00;5.45;;;10.00;99.90;;;;;;5049254;28;20041;-62
2022/10/07 05:12:16;;;;;;;23.20;6.80;;;10.00;99.90;;;;;;5048661;28;20096;-62
2022/10/07 05:14:43;;;;;;;17.08;5.78;;;10.00;99.90;;;;;;5050257;28;20045;-62
2022/10/07 05:17:09;;;;;;;19.55;5.63;;;10.00;99.90;;;;;;5031272;28;20408;-62
2022/10/07 05:19:35;;;;;;;19.00;6.05;;;10.00;99.90;;;;;;5049027;28;20048;-62
2022/10/07 05:22:01;;;;;;;17.98;6.50;;;9.90;99.90;;;;;;5050260;28;20040;-62
2022/10/07 05:24:28;;;;;;;17.30;6.85;;;10.00;99.90;;;;;;5049335;28;20497;-62
2022/10/07 05:26:53;;;;;;;17.92;6.38;;;10.00;99.90;;;;;;5048568;28;20063;-62
2022/10/07 05:29:19;;;;;;;15.98;6.40;;;9.90;99.90;;;;;;5048067;28;20037;-62
2022/10/07 05:31:45;;;;;;;15.90;5.90;;;9.90;99.90;;;;;;5049396;28;20045;-62
2022/10/07 05:34:11;;;;;;;16.25;6.50;;;9.90;99.90;;;;;;5048911;28;20037;-62
2022/10/07 05:36:37;;;;;;;16.48;6.28;;;9.90;99.90;;;;;;5048232;28;20095;-62
2022/10/07 05:39:03;;;;;;;19.30;6.53;;;9.90;99.90;;;;;;5048269;28;20044;-62
2022/10/07 05:41:29;;;;;;;20.75;6.90;;;10.00;99.90;;;;;;5063119;28;20055;-62
2022/10/07 05:43:55;;;;;;;18.50;6.40;;;10.00;99.90;;;;;;5030950;28;20053;-62
2022/10/07 05:46:21;;;;;;;17.35;7.43;;;10.00;99.90;;;;;;5049859;28;20102;-62
2022/10/07 05:48:50;;;;;;;18.55;6.53;;;10.00;99.90;;;;;;5048061;28;20061;-62
2022/10/07 05:51:17;;;;;;;16.17;6.70;;;9.90;99.90;;;;;;5048942;28;20044;-62
2022/10/07 05:53:45;;;;;;;18.50;7.13;;;10.00;99.90;;;;;;5048382;28;20060;-62
2022/10/07 05:56:15;;;;;;;13.60;5.97;;;10.00;99.90;;;;;;5049914;28;20071;-62
2022/10/07 05:58:41;;;;;;;16.48;6.40;;;10.00;99.90;;;;;;5047684;28;20080;-62
2022/10/07 06:01:13;;;;;;;18.80;6.28;;;10.00;99.90;;;;;;5048163;28;20076;-62
2022/10/07 06:03:39;;;;;;;15.20;5.70;;;10.00;99.90;;;;;;5049814;28;20049;-62
2022/10/07 06:06:05;;;;;;;19.60;6.10;;;10.00;99.90;;;;;;5048012;28;20044;-62
2022/10/07 06:08:30;;;;;;;15.25;6.15;;;10.10;99.90;;;;;;5047813;28;20112;-62
2022/10/07 06:13:50;;;;;;;17.60;5.80;;;10.10;99.90;;;;;;5029189;28;20061;-62
2022/10/07 06:16:16;;;;;;;16.23;5.18;;;10.10;99.90;;;;;;5028345;28;20509;-62
2022/10/07 06:18:42;;;;;;;17.15;6.82;;;10.20;99.90;;;;;;5028996;28;20045;-62
2022/10/07 06:21:07;;;;;;;21.27;6.30;;;10.20;99.90;;;;;;5033277;28;20444;-62
2022/10/07 06:23:34;;;;;;;16.92;5.55;;;10.20;99.90;;;;;;5051988;28;20094;-62
2022/10/07 06:26:02;;;;;;;17.88;5.40;;;10.20;99.90;;;;;;5051417;28;20037;-62
2022/10/07 06:28:37;;;;;;;19.70;6.47;;;10.30;99.90;;;;;;5033000;28;20548;-62
2022/10/07 06:31:21;;;;;;;17.10;5.85;;;10.30;99.90;;;;;;5031645;28;20049;-62
2022/10/07 06:33:48;;;;;;;13.57;5.60;;;10.30;99.90;;;;;;5031098;28;20052;-62
2022/10/07 06:36:13;;;;;;;15.48;6.50;;;10.30;99.90;;;;;;5044020;28;20778;-62
2022/10/07 06:38:44;;;;;;;14.95;5.70;;;10.40;99.90;;;;;;5049943;28;20045;-62
2022/10/07 06:41:10;;;;;;;14.95;6.40;;;10.40;99.90;;;;;;5031822;28;20049;-62
2022/10/07 06:43:35;;;;;;;16.00;6.15;;;10.40;99.90;;;;;;5050978;28;20049;-62
2022/10/07 06:46:03;;;;;;;17.35;6.80;;;10.50;99.90;;;;;;5053014;28;20037;-62
2022/10/07 06:48:31;;;;;;;17.42;6.53;;;10.50;99.90;;;;;;5049479;28;20060;-62
2022/10/07 06:50:58;;;;;;;22.85;6.50;;;10.60;99.90;;;;;;5052238;28;20040;-62
2022/10/07 06:53:24;;;;;;;17.42;6.63;;;10.60;99.90;;;;;;5050641;28;20438;-62
2022/10/07 06:55:53;;;;;;;15.15;6.75;;;10.80;99.90;;;;;;5048617;28;20056;-62
2022/10/07 06:58:19;;;;;;;20.17;6.90;;;10.80;99.90;;;;;;5052053;28;20103;-62
2022/10/07 07:01:04;;;;;;;18.75;6.22;;;10.80;99.90;;;;;;5052310;28;20102;-62
2022/10/07 07:03:31;;;;;;;21.35;5.88;;;10.90;99.90;;;;;;5051910;28;20163;-62
2022/10/07 07:05:57;;;;;;;17.13;6.68;;;10.90;99.90;;;;;;5052245;28;20060;-62
2022/10/07 07:08:30;;;;;;;18.17;7.00;;;11.00;99.90;;;;;;5084052;28;20049;-62
2022/10/07 07:11:34;;;;;;;16.92;6.22;;;11.00;99.90;;;;;;5084716;28;20115;-62
2022/10/07 07:13:51;;;;;;;18.42;5.63;;;11.00;99.90;;;;;;5051308;28;20440;-62
2022/10/07 07:16:17;;;;;;;15.55;5.97;;;11.00;99.90;;;;;;5083792;28;20048;-62
2022/10/07 07:56:01;;;;;;;17.83;6.25;;;11.80;99.90;;;;;;5045806;28;20048;-63
2022/10/07 07:58:28;;;;;;;17.73;6.35;;;11.90;99.90;;;;;;5053646;28;20195;-63
2022/10/07 08:01:10;;;;;;;13.70;5.50;;;11.90;99.90;;;;;;5081425;28;20047;-63
2022/10/07 08:03:36;;;;;;;15.75;6.05;;;11.90;99.90;;;;;;5052434;28;20094;-63
2022/10/07 08:06:04;;;;;;;13.13;5.35;;;11.90;99.90;;;;;;5084863;28;20044;-63
2022/10/07 08:08:30;;;;;;;14.35;5.00;;;12.00;99.90;;;;;;5051550;28;20037;-63
2022/10/07 08:10:56;;;;;;;16.75;5.63;;;12.00;99.90;;;;;;5053570;28;20040;-63
2022/10/07 08:13:23;;;;;;;15.80;5.95;;;12.10;99.90;;;;;;5051608;28;20379;-63
2022/10/07 08:15:55;;;;;;;19.48;5.82;;;12.10;99.90;;;;;;5051810;28;20154;-63
2022/10/07 08:18:20;;;;;;;16.75;6.15;;;12.20;99.90;;;;;;5050992;28;20378;-63
2022/10/07 08:20:56;;;;;;;13.05;5.00;;;12.30;99.90;;;;;;5085173;28;20045;-63
2022/10/07 08:23:22;;;;;;;21.90;5.70;;;12.30;99.90;;;;;;5055788;28;20048;-63
2022/10/07 08:25:53;;;;;;;17.98;6.20;;;12.40;99.90;;;;;;5072094;28;20048;-63
2022/10/07 08:28:18;;;;;;;16.10;5.50;;;12.40;99.90;;;;;;5071513;28;20484;-63
2022/10/07 08:30:45;;;;;;;22.25;5.82;;;12.50;99.90;;;;;;5058132;28;20202;-63
2022/10/07 08:33:11;;;;;;;13.40;4.90;;;12.60;99.90;;;;;;5051144;28;20508;-63
2022/10/07 08:35:36;;;;;;;15.73;5.30;;;12.70;99.90;;;;;;5053400;28;20037;-63
2022/10/07 08:38:02;;;;;;;13.20;4.63;;;12.70;99.90;;;;;;5052784;28;20044;-63
2022/10/07 08:40:27;;;;;;;17.15;5.03;;;12.80;99.90;;;;;;5084929;28;20045;-62
2022/10/07 08:42:53;;;;;;;13.88;4.75;;;12.90;99.90;;;;;;5052609;28;20432;-63
2022/10/07 08:45:30;;;;;;;14.93;5.65;;;13.00;99.90;;;;;;5084795;28;20055;-62
2022/10/07 08:48:01;;;;;;;14.77;5.15;;;13.10;99.90;;;;;;5084061;28;20043;-62
2022/10/07 08:51:08;;;;;;;13.55;5.03;;;13.10;99.90;;;;;;5051349;28;20064;-61
2022/10/07 08:53:35;;;;;;;15.98;5.07;;;13.10;99.90;;;;;;5034184;28;20106;-61
2022/10/07 08:56:19;;;;;;;12.48;5.07;;;13.20;99.90;;;;;;5051105;28;20091;-61
2022/10/07 08:59:14;;;;;;;18.40;5.43;;;13.20;99.90;;;;;;5051133;28;20424;-62
2022/10/07 09:02:02;;;;;;;16.40;5.28;;;13.30;99.90;;;;;;5050108;28;20045;-61
2022/10/07 09:04:59;;;;;;;15.88;4.90;;;13.40;99.90;;;;;;5050405;28;20508;-61
2022/10/07 09:07:31;;;;;;;19.17;4.85;;;13.50;99.90;;;;;;5050909;28;20041;-61
2022/10/07 09:10:08;;;;;;;15.93;5.13;;;13.60;99.90;;;;;;5034479;28;20146;-62
2022/10/07 09:12:57;;;;;;;16.80;5.10;;;13.60;99.90;;;;;;5052470;28;20120;-62
2022/10/07 09:15:44;;;;;;;17.92;5.53;;;13.80;99.90;;;;;;5050529;28;20045;-62
2022/10/07 09:18:24;;;;;;;16.98;5.43;;;13.80;99.90;;;;;;5051230;28;20128;-61
2022/10/07 09:20:55;;;;;;;15.18;4.53;;;13.90;99.90;;;;;;5052188;28;20040;-62
2022/10/07 09:23:29;;;;;;;14.27;5.82;;;14.00;99.90;;;;;;5051645;28;20033;-62
2022/10/07 09:25:54;;;;;;;17.77;6.10;;;14.10;99.90;;;;;;5051228;28;20121;-62
2022/10/07 09:28:28;;;;;;;19.05;5.95;;;14.10;99.90;;;;;;5050777;28;20112;-62
2022/10/07 09:30:57;;;;;;;15.13;5.10;;;14.20;99.90;;;;;;5051789;28;20048;-62
2022/10/07 09:33:23;;;;;;;18.70;6.20;;;14.30;99.90;;;;;;5051125;28;20036;-61
2022/10/07 09:35:55;;;;;;;17.35;5.65;;;14.30;99.90;;;;;;5083386;28;20044;-62
2022/10/07 09:38:32;;;;;;;19.02;5.20;;;14.30;99.90;;;;;;5052150;28;20432;-62
2022/10/07 09:41:19;;;;;;;17.73;5.35;;;14.40;99.90;;;;;;5050990;28;20444;-62
2022/10/07 09:43:53;;;;;;;12.60;4.43;;;14.40;99.90;;;;;;5050400;28;20595;-62
2022/10/07 09:46:38;;;;;;;;;;;14.50;99.90;;;;;;5051290;28;20075;-62
2022/10/07 09:49:04;;;;;;;10.15;4.30;;;14.60;99.90;;;;;;5051642;28;19927;-62
2022/10/07 09:51:31;;;;;;;13.90;4.47;;;14.60;99.90;;;;;;5033855;28;20041;-62
2022/10/07 09:54:18;;;;;;;12.07;4.55;;;14.60;99.90;;;;;;5050204;28;20413;-62
2022/10/07 09:56:45;;;;;;;15.65;5.00;;;14.70;99.90;;;;;;5033884;28;20044;-61
2022/10/07 09:59:20;;;;;;;12.73;4.03;;;14.70;99.90;;;;;;5080463;28;20045;-63
2022/10/07 10:02:14;;;;;;;19.50;4.43;;;14.70;99.90;;;;;;5044723;28;20094;-63
2022/10/07 10:04:52;;;;;;;16.35;3.63;;;14.80;99.90;;;;;;5044072;28;20067;-63
2022/10/07 10:07:35;;;;;;;13.52;4.68;;;14.90;99.90;;;;;;5048947;28;20052;-62
2022/10/07 10:10:19;;;;;;;13.70;4.15;;;15.00;99.90;;;;;;5047925;28;20083;-63
2022/10/07 10:12:48;;;;;;;15.40;4.80;;;15.00;99.90;;;;;;5048535;28;20045;-63
2022/10/07 10:15:34;;;;;;;15.45;4.97;;;15.00;99.90;;;;;;5031203;28;20127;-63
2022/10/07 10:18:01;;;;;;;14.60;3.83;;;15.00;99.90;;;;;;5046690;28;20051;-63
2022/10/07 10:20:34;;;;;;;17.33;4.55;;;15.00;99.90;;;;;;5047709;28;20443;-63
2022/10/07 10:23:22;;;;;;;21.88;5.05;;;15.10;99.90;;;;;;5030843;28;20037;-63
2022/10/07 10:26:26;;;;;;;21.08;4.97;;;15.20;99.90;;;;;;5044943;28;20041;-63
2022/10/07 10:28:51;;;;;;;20.25;5.20;;;15.20;99.90;;;;;;5030915;28;20044;-63
2022/10/07 10:31:34;;;;;;;13.57;4.28;;;15.20;99.90;;;;;;5047999;28;20041;-62
2022/10/07 10:34:23;;;;;;;11.95;4.38;;;15.30;99.90;;;;;;5026187;28;20124;-63
2022/10/07 10:37:00;;;;;;;14.70;4.13;;;15.30;99.90;;;;;;5026780;28;20129;-63
2022/10/07 10:39:31;;;;;;;12.32;4.00;;;15.30;99.90;;;;;;5042224;28;20128;-63
2022/10/07 10:42:01;;;;;;;19.27;5.70;;;15.30;99.90;;;;;;5047170;28;20440;-62
2022/10/07 10:45:13;;;;;;;11.40;3.55;;;15.30;99.90;;;;;;5048370;28;20505;-63
2022/10/07 10:48:11;;;;;;;15.18;4.07;;;15.30;99.90;;;;;;5045749;28;20202;-63
2022/10/07 10:51:20;;;;;;;11.77;3.85;;;15.40;99.90;;;;;;5034384;28;20069;-63
2022/10/07 10:53:51;;;;;;;13.73;3.95;;;15.50;99.90;;;;;;5034228;28;20052;-62
2022/10/07 10:56:39;;;;;;;15.90;3.97;;;15.60;99.90;;;;;;5045331;28;20413;-62
2022/10/07 10:59:21;;;;;;;15.95;4.35;;;15.60;99.90;;;;;;5048443;28;20044;-64
2022/10/07 11:02:06;;;;;;;14.63;4.13;;;15.60;99.90;;;;;;5081394;28;20072;-63
2022/10/07 11:04:32;;;;;;;18.05;5.25;;;15.80;99.90;;;;;;5050329;28;20489;-63
2022/10/07 11:07:16;;;;;;;15.23;5.25;;;15.80;99.90;;;;;;5053262;28;20041;-63
2022/10/07 11:09:47;;;;;;;11.47;5.10;;;15.90;99.90;;;;;;5053854;28;20067;-63
2022/10/07 11:12:38;;;;;;;20.55;4.97;;;16.00;99.90;;;;;;5053368;28;20032;-63
2022/10/07 11:15:28;;;;;;;8.43;3.20;;;16.10;99.90;;;;;;5052648;28;20477;-62
2022/10/07 11:17:59;;;;;;;18.25;3.55;;;16.20;99.90;;;;;;5052989;28;20033;-61
2022/10/07 11:20:34;;;;;;;16.27;4.43;;;16.20;99.90;;;;;;5054001;28;20413;-61
2022/10/07 11:23:16;;;;;;;11.85;4.10;;;16.20;99.90;;;;;;5053500;28;20044;-61
2022/10/07 11:26:04;;;;;;;15.13;4.00;;;16.30;99.90;;;;;;5087160;28;20074;-61
2022/10/07 11:28:35;;;;;;;16.88;3.70;;;16.30;99.90;;;;;;5086207;28;20464;-61
2022/10/07 11:31:10;;;;;;;14.10;3.85;;;16.20;99.90;;;;;;5086667;28;20102;-61
2022/10/07 11:34:12;;;;;;;13.75;4.18;;;16.30;99.90;;;;;;5070063;28;20087;-61
2022/10/07 11:36:54;;;;;;;19.35;4.45;;;16.30;99.90;;;;;;5086199;28;20037;-61
2022/10/07 11:39:21;;;;;;;13.00;3.60;;;16.30;99.90;;;;;;5086825;28;20041;-61
2022/10/07 11:42:04;;;;;;;12.02;3.72;;;16.30;99.90;;;;;;5054141;28;20040;-62
2022/10/07 11:44:38;;;;;;;12.50;4.07;;;16.30;99.90;;;;;;5085441;28;20037;-61
2022/10/07 11:47:09;;;;;;;13.35;4.28;;;16.30;99.90;;;;;;5086963;28;20045;-61
2022/10/07 11:49:40;;;;;;;11.50;3.90;;;16.30;99.90;;;;;;5053168;28;20584;-61
2022/10/07 11:52:19;;;;;;;14.73;4.18;;;16.30;99.90;;;;;;5054218;28;20390;-61
2022/10/07 11:55:06;;;;;;;14.35;3.75;;;16.30;99.90;;;;;;5053895;28;20053;-61
2022/10/07 11:57:37;;;;;;;11.40;3.70;;;16.20;99.90;;;;;;5053059;28;20072;-61
2022/10/07 12:00:23;;;;;;;14.23;4.18;;;16.30;99.90;;;;;;5069171;28;20049;-61
2022/10/07 12:02:48;;;;;;;16.50;4.30;;;16.30;99.90;;;;;;5086459;28;20110;-61
2022/10/07 12:05:34;;;;;;;14.40;3.97;;;16.20;99.90;;;;;;5085279;28;20432;-61
2022/10/07 12:08:23;;;;;;;13.65;4.30;;;16.10;99.90;;;;;;5032367;28;20573;-61
2022/10/07 12:10:53;;;;;;;11.20;3.63;;;16.00;99.90;;;;;;5047075;28;20056;-61
2022/10/07 12:13:22;;;;;;;13.38;3.83;;;16.00;99.90;;;;;;5053677;28;20120;-61
2022/10/07 12:15:49;;;;;;;13.32;4.00;;;15.90;99.90;;;;;;5085661;28;20048;-61
2022/10/07 12:18:17;;;;;;;13.68;3.92;;;15.90;99.90;;;;;;5052498;28;20124;-61
2022/10/07 12:20:49;;;;;;;9.07;3.22;;;15.90;99.90;;;;;;5086369;28;20041;-61
2022/10/07 12:25:49;;;;;;;18.15;3.15;;;15.90;99.90;;;;;;5052713;28;20560;-61
2022/10/07 12:28:16;;;;;;;14.63;3.95;;;16.00;99.90;;;;;;5035355;28;20198;-61
2022/10/07 12:30:50;;;;;;;15.57;3.60;;;16.00;99.90;;;;;;5086064;28;20040;-61
2022/10/07 12:33:28;;;;;;;9.60;3.67;;;16.00;99.90;;;;;;5067677;28;20099;-61
2022/10/07 12:35:54;;;;;;;14.63;4.00;;;16.10;99.90;;;;;;5053193;28;20059;-61
2022/10/07 12:38:28;;;;;;;10.15;3.38;;;16.10;99.90;;;;;;5085366;28;20427;-61
2022/10/07 12:41:10;;;;;;;11.52;3.58;;;16.10;99.90;;;;;;5085313;28;20452;-61
2022/10/07 12:43:35;;;;;;;10.88;3.35;;;16.10;99.90;;;;;;5053004;28;20459;-61
2022/10/07 12:46:09;;;;;;;10.65;3.58;;;16.20;99.90;;;;;;5052178;28;20069;-61
2022/10/07 12:49:03;;;;;;;12.40;3.33;;;16.10;99.90;;;;;;5052793;28;20586;-61
2022/10/07 12:51:39;;;;;;;11.35;3.35;;;16.10;99.90;;;;;;5051590;28;20039;-61
2022/10/07 12:54:31;;;;;;;10.85;3.15;;;16.10;99.90;;;;;;5084449;28;20065;-61
2022/10/07 12:56:57;;;;;;;10.93;2.67;;;16.10;99.90;;;;;;5043481;28;20456;-61
2022/10/07 13:02:30;;;;;;;12.30;3.45;;;16.00;99.90;;;;;;5051473;28;20497;-61
2022/10/07 13:05:17;;;;;;;10.73;2.97;;;16.00;99.90;;;;;;5052629;28;20056;-61
2022/10/07 13:08:31;;;;;;;10.93;2.88;;;16.00;99.90;;;;;;5084276;28;20045;-61
2022/10/07 13:11:15;;;;;;;11.57;3.28;;;16.00;99.90;;;;;;5052431;28;20493;-61
2022/10/07 13:14:17;;;;;;;18.10;3.28;;;16.00;99.90;;;;;;5084464;28;20045;-61
2022/10/07 13:17:21;;;;;;;10.85;3.55;;;16.00;99.90;;;;;;5085231;28;20040;-61
2022/10/07 13:19:56;;;;;;;12.23;3.85;;;16.10;99.90;;;;;;5085084;28;20045;-61
2022/10/07 13:22:23;;;;;;;11.95;3.72;;;16.10;99.90;;;;;;5067097;28;20057;-61
2022/10/07 13:24:54;;;;;;;15.18;3.25;;;16.20;99.90;;;;;;5052468;28;20087;-61
2022/10/07 13:27:33;;;;;;;11.60;3.88;;;16.30;99.90;;;;;;5051897;28;20119;-61
2022/10/07 13:30:00;;;;;;;14.70;4.00;;;16.30;99.90;;;;;;5050935;28;20508;-61
2022/10/07 13:32:31;;;;;;;17.23;3.78;;;16.30;99.90;;;;;;5084664;28;20048;-61
2022/10/07 13:34:58;;;;;;;13.25;4.22;;;16.20;99.90;;;;;;5083846;28;20095;-61
2022/10/07 13:37:35;;;;;;;14.93;3.65;;;16.20;99.90;;;;;;5052138;28;20506;-61
2022/10/07 13:40:23;;;;;;;14.32;4.63;;;16.10;99.90;;;;;;5084528;28;20041;-61
2022/10/07 13:42:57;;;;;;;13.70;3.25;;;16.10;99.90;;;;;;5051126;28;20096;-61
2022/10/07 13:45:24;;;;;;;12.10;3.97;;;16.10;99.90;;;;;;5084414;28;20047;-61
2022/10/07 13:47:50;;;;;;;15.15;4.28;;;16.20;99.90;;;;;;5084402;28;20516;-61
2022/10/07 13:50:25;;;;;;;11.15;3.10;;;16.40;99.90;;;;;;5083328;28;20124;-61
2022/10/07 13:52:52;;;;;;;10.95;3.58;;;16.50;99.90;;;;;;5051888;28;20041;-61
2022/10/07 13:55:31;;;;;;;7.70;2.85;;;16.60;99.90;;;;;;5083948;28;20053;-61